sensor_id;sensor_type;location;lat;lon;timestamp;P1;durP1;ratioP1;P2;durP2;ratioP2
51515;SDS011;37603;55.614;37.326;2023-04-22T00:05:45;11.0;;;4.4;;
51515;SDS011;37603;55.614;37.326;2023-04-22T00:11:44;11.1;;;4.0;;
51515;SDS011;37603;55.614;37.326;2023-04-22T00:17:43;9.9;;;3.8;;
51515;SDS011;37603;55.614;37.326;2023-04-22T00:23:42;10.1;;;3.9;;
51515;SDS011;37603;55.614;37.326;2023-04-22T00:29:41;9.7;;;3.9;;
51515;SDS011;37603;55.614;37.326;2023-04-22T00:35:40;8.6;;;4.3;;
51515;SDS011;37603;55.614;37.326;2023-04-22T00:41:39;9.0;;;3.8;;
51515;SDS011;37603;55.614;37.326;2023-04-22T00:47:38;8.4;;;4.3;;
51515;SDS011;37603;55.614;37.326;2023-04-22T00:53:37;8.5;;;4.4;;
51515;SDS011;37603;55.614;37.326;2023-04-22T00:59:36;8.6;;;4.0;;
51515;SDS011;37603;55.614;37.326;2023-04-22T01:05:35;9.9;;;4.3;;
51515;SDS011;37603;55.614;37.326;2023-04-22T01:11:34;11.2;;;4.7;;
51515;SDS011;37603;55.614;37.326;2023-04-22T01:17:33;9.4;;;4.1;;
51515;SDS011;37603;55.614;37.326;2023-04-22T01:23:32;12.2;;;4.7;;
51515;SDS011;37603;55.614;37.326;2023-04-22T01:29:31;10.4;;;4.8;;
51515;SDS011;37603;55.614;37.326;2023-04-22T01:35:30;12.2;;;5.9;;
51515;SDS011;37603;55.614;37.326;2023-04-22T01:41:31;11.6;;;6.4;;
51515;SDS011;37603;55.614;37.326;2023-04-22T01:47:28;10.5;;;5.7;;
51515;SDS011;37603;55.614;37.326;2023-04-22T01:53:27;9.4;;;5.1;;
51515;SDS011;37603;55.614;37.326;2023-04-22T01:59:26;12.5;;;6.3;;
51515;SDS011;37603;55.614;37.326;2023-04-22T02:05:25;11.7;;;5.6;;
51515;SDS011;37603;55.614;37.326;2023-04-22T02:11:24;11.5;;;5.1;;
51515;SDS011;37603;55.614;37.326;2023-04-22T02:17:23;12.0;;;5.1;;
51515;SDS011;37603;55.614;37.326;2023-04-22T02:23:22;12.4;;;4.9;;
51515;SDS011;37603;55.614;37.326;2023-04-22T02:29:20;9.2;;;4.7;;
51515;SDS011;37603;55.614;37.326;2023-04-22T02:35:19;9.6;;;5.1;;
51515;SDS011;37603;55.614;37.326;2023-04-22T02:41:18;10.8;;;5.2;;
51515;SDS011;37603;55.614;37.326;2023-04-22T02:47:17;10.2;;;5.1;;
51515;SDS011;37603;55.614;37.326;2023-04-22T02:53:16;9.3;;;4.8;;
51515;SDS011;37603;55.614;37.326;2023-04-22T02:59:15;11.3;;;5.5;;
51515;SDS011;37603;55.614;37.326;2023-04-22T03:05:14;9.7;;;5.0;;
51515;SDS011;37603;55.614;37.326;2023-04-22T03:11:13;8.8;;;4.8;;
51515;SDS011;37603;55.614;37.326;2023-04-22T03:17:12;11.0;;;5.2;;
51515;SDS011;37603;55.614;37.326;2023-04-22T03:23:11;10.6;;;5.3;;
51515;SDS011;37603;55.614;37.326;2023-04-22T03:29:10;9.0;;;5.0;;
51515;SDS011;37603;55.614;37.326;2023-04-22T03:35:09;8.8;;;4.7;;
51515;SDS011;37603;55.614;37.326;2023-04-22T03:41:08;8.6;;;4.7;;
51515;SDS011;37603;55.614;37.326;2023-04-22T03:53:06;8.4;;;4.0;;
51515;SDS011;37603;55.614;37.326;2023-04-22T04:05:04;9.2;;;4.2;;
51515;SDS011;37603;55.614;37.326;2023-04-22T04:11:03;7.6;;;4.1;;
51515;SDS011;37603;55.614;37.326;2023-04-22T04:17:02;8.8;;;4.3;;
51515;SDS011;37603;55.614;37.326;2023-04-22T04:23:01;9.1;;;4.3;;
51515;SDS011;37603;55.614;37.326;2023-04-22T04:29:00;10.6;;;4.4;;
51515;SDS011;37603;55.614;37.326;2023-04-22T04:34:59;10.3;;;4.5;;
51515;SDS011;37603;55.614;37.326;2023-04-22T04:40:58;7.6;;;4.5;;
51515;SDS011;37603;55.614;37.326;2023-04-22T04:46:57;10.8;;;4.2;;
51515;SDS011;37603;55.614;37.326;2023-04-22T04:52:56;8.3;;;4.1;;
51515;SDS011;37603;55.614;37.326;2023-04-22T04:58:55;8.7;;;4.5;;
51515;SDS011;37603;55.614;37.326;2023-04-22T05:04:54;7.5;;;4.0;;
51515;SDS011;37603;55.614;37.326;2023-04-22T05:10:53;18.7;;;5.0;;
51515;SDS011;37603;55.614;37.326;2023-04-22T05:16:53;10.1;;;4.1;;
51515;SDS011;37603;55.614;37.326;2023-04-22T05:22:52;9.1;;;3.8;;
51515;SDS011;37603;55.614;37.326;2023-04-22T05:28:51;5.8;;;3.3;;
51515;SDS011;37603;55.614;37.326;2023-04-22T05:34:50;10.4;;;3.3;;
51515;SDS011;37603;55.614;37.326;2023-04-22T05:40:49;5.4;;;2.5;;
51515;SDS011;37603;55.614;37.326;2023-04-22T05:46:49;6.4;;;2.6;;
51515;SDS011;37603;55.614;37.326;2023-04-22T05:52:48;7.2;;;2.7;;
51515;SDS011;37603;55.614;37.326;2023-04-22T05:58:47;5.0;;;1.9;;
51515;SDS011;37603;55.614;37.326;2023-04-22T06:04:47;5.5;;;2.2;;
51515;SDS011;37603;55.614;37.326;2023-04-22T06:10:46;5.7;;;2.0;;
51515;SDS011;37603;55.614;37.326;2023-04-22T06:16:45;4.1;;;2.4;;
51515;SDS011;37603;55.614;37.326;2023-04-22T06:22:45;5.6;;;1.9;;
51515;SDS011;37603;55.614;37.326;2023-04-22T06:28:45;5.1;;;1.8;;
51515;SDS011;37603;55.614;37.326;2023-04-22T06:34:44;3.2;;;1.4;;
51515;SDS011;37603;55.614;37.326;2023-04-22T06:40:43;6.6;;;2.1;;
51515;SDS011;37603;55.614;37.326;2023-04-22T06:46:43;3.0;;;1.7;;
51515;SDS011;37603;55.614;37.326;2023-04-22T06:52:42;4.7;;;1.8;;
51515;SDS011;37603;55.614;37.326;2023-04-22T06:58:42;7.8;;;1.9;;
51515;SDS011;37603;55.614;37.326;2023-04-22T07:04:41;3.4;;;1.4;;
51515;SDS011;37603;55.614;37.326;2023-04-22T07:10:41;4.6;;;1.3;;
51515;SDS011;37603;55.614;37.326;2023-04-22T07:16:40;3.1;;;1.3;;
51515;SDS011;37603;55.614;37.326;2023-04-22T07:22:40;3.5;;;1.6;;
51515;SDS011;37603;55.614;37.326;2023-04-22T07:28:40;3.6;;;1.4;;
51515;SDS011;37603;55.614;37.326;2023-04-22T07:34:39;4.5;;;1.4;;
51515;SDS011;37603;55.614;37.326;2023-04-22T07:46:37;5.0;;;1.3;;
51515;SDS011;37603;55.614;37.326;2023-04-22T07:52:37;2.6;;;1.3;;
51515;SDS011;37603;55.614;37.326;2023-04-22T07:58:36;3.6;;;1.5;;
51515;SDS011;37603;55.614;37.326;2023-04-22T08:04:36;5.1;;;1.7;;
51515;SDS011;37603;55.614;37.326;2023-04-22T08:10:35;4.0;;;1.2;;
51515;SDS011;37603;55.614;37.326;2023-04-22T08:16:36;3.2;;;1.3;;
51515;SDS011;37603;55.614;37.326;2023-04-22T08:22:34;2.2;;;1.1;;
51515;SDS011;37603;55.614;37.326;2023-04-22T08:28:34;3.4;;;1.4;;
51515;SDS011;37603;55.614;37.326;2023-04-22T08:34:33;4.6;;;1.3;;
51515;SDS011;37603;55.614;37.326;2023-04-22T08:40:33;2.4;;;1.6;;
51515;SDS011;37603;55.614;37.326;2023-04-22T08:46:32;1.9;;;1.0;;
51515;SDS011;37603;55.614;37.326;2023-04-22T08:52:32;3.3;;;1.1;;
51515;SDS011;37603;55.614;37.326;2023-04-22T08:58:31;2.7;;;1.1;;
51515;SDS011;37603;55.614;37.326;2023-04-22T09:04:31;3.8;;;1.2;;
51515;SDS011;37603;55.614;37.326;2023-04-22T09:10:30;3.2;;;1.4;;
51515;SDS011;37603;55.614;37.326;2023-04-22T09:16:30;9.5;;;1.4;;
51515;SDS011;37603;55.614;37.326;2023-04-22T09:22:35;3.4;;;1.1;;
51515;SDS011;37603;55.614;37.326;2023-04-22T09:28:29;3.7;;;1.1;;
51515;SDS011;37603;55.614;37.326;2023-04-22T09:34:28;3.1;;;1.4;;
51515;SDS011;37603;55.614;37.326;2023-04-22T09:40:28;6.4;;;1.6;;
51515;SDS011;37603;55.614;37.326;2023-04-22T09:46:27;3.7;;;1.3;;
51515;SDS011;37603;55.614;37.326;2023-04-22T09:52:26;3.1;;;1.2;;
51515;SDS011;37603;55.614;37.326;2023-04-22T09:58:26;2.8;;;1.3;;
51515;SDS011;37603;55.614;37.326;2023-04-22T10:04:25;4.9;;;2.3;;
51515;SDS011;37603;55.614;37.326;2023-04-22T10:10:25;5.6;;;1.3;;
51515;SDS011;37603;55.614;37.326;2023-04-22T10:16:25;1.9;;;1.1;;
51515;SDS011;37603;55.614;37.326;2023-04-22T10:22:24;3.5;;;1.6;;
51515;SDS011;37603;55.614;37.326;2023-04-22T10:28:26;2.4;;;1.4;;
51515;SDS011;37603;55.614;37.326;2023-04-22T14:24:03;5.9;;;2.8;;
51515;SDS011;37603;55.614;37.326;2023-04-22T14:29:31;6.5;;;2.6;;
51515;SDS011;37603;55.614;37.326;2023-04-22T14:35:30;6.1;;;3.0;;
51515;SDS011;37603;55.614;37.326;2023-04-22T14:41:30;4.9;;;3.0;;
51515;SDS011;37603;55.614;37.326;2023-04-22T14:47:29;8.9;;;5.4;;
51515;SDS011;37603;55.614;37.326;2023-04-22T14:53:29;8.7;;;5.1;;
51515;SDS011;37603;55.614;37.326;2023-04-22T14:59:28;13.9;;;8.5;;
51515;SDS011;37603;55.614;37.326;2023-04-22T15:05:28;9.1;;;3.7;;
51515;SDS011;37603;55.614;37.326;2023-04-22T15:11:28;7.2;;;3.5;;
51515;SDS011;37603;55.614;37.326;2023-04-22T15:17:27;7.6;;;3.8;;
51515;SDS011;37603;55.614;37.326;2023-04-22T15:23:26;7.0;;;3.2;;
51515;SDS011;37603;55.614;37.326;2023-04-22T15:29:26;12.6;;;6.2;;
51515;SDS011;37603;55.614;37.326;2023-04-22T15:35:25;7.7;;;2.8;;
51515;SDS011;37603;55.614;37.326;2023-04-22T15:41:25;8.8;;;3.8;;
51515;SDS011;37603;55.614;37.326;2023-04-22T15:47:26;8.1;;;3.6;;
51515;SDS011;37603;55.614;37.326;2023-04-22T15:53:24;18.8;;;11.5;;
51515;SDS011;37603;55.614;37.326;2023-04-22T15:59:23;9.9;;;5.2;;
51515;SDS011;37603;55.614;37.326;2023-04-22T16:05:23;6.7;;;3.6;;
51515;SDS011;37603;55.614;37.326;2023-04-22T16:11:22;12.9;;;5.7;;
51515;SDS011;37603;55.614;37.326;2023-04-22T16:17:22;11.5;;;6.4;;
51515;SDS011;37603;55.614;37.326;2023-04-22T16:23:21;17.3;;;8.4;;
51515;SDS011;37603;55.614;37.326;2023-04-22T16:29:20;15.3;;;10.3;;
51515;SDS011;37603;55.614;37.326;2023-04-22T16:35:20;6.3;;;3.6;;
51515;SDS011;37603;55.614;37.326;2023-04-22T16:41:19;5.4;;;2.3;;
51515;SDS011;37603;55.614;37.326;2023-04-22T16:47:19;8.5;;;3.1;;
51515;SDS011;37603;55.614;37.326;2023-04-22T16:53:18;4.6;;;3.0;;
51515;SDS011;37603;55.614;37.326;2023-04-22T16:59:18;6.3;;;2.8;;
51515;SDS011;37603;55.614;37.326;2023-04-22T17:05:17;4.2;;;2.6;;
51515;SDS011;37603;55.614;37.326;2023-04-22T17:11:16;3.7;;;2.3;;
51515;SDS011;37603;55.614;37.326;2023-04-22T17:17:15;6.7;;;3.3;;
51515;SDS011;37603;55.614;37.326;2023-04-22T17:23:15;7.3;;;3.4;;
51515;SDS011;37603;55.614;37.326;2023-04-22T17:29:14;4.4;;;3.1;;
51515;SDS011;37603;55.614;37.326;2023-04-22T17:35:13;7.1;;;3.0;;
51515;SDS011;37603;55.614;37.326;2023-04-22T17:41:13;7.2;;;3.1;;
51515;SDS011;37603;55.614;37.326;2023-04-22T17:47:12;10.2;;;3.6;;
51515;SDS011;37603;55.614;37.326;2023-04-22T17:53:11;9.3;;;4.2;;
51515;SDS011;37603;55.614;37.326;2023-04-22T17:59:10;15.1;;;6.8;;
51515;SDS011;37603;55.614;37.326;2023-04-22T18:05:10;22.7;;;12.2;;
51515;SDS011;37603;55.614;37.326;2023-04-22T18:11:09;45.1;;;22.3;;
51515;SDS011;37603;55.614;37.326;2023-04-22T18:17:08;18.7;;;10.4;;
51515;SDS011;37603;55.614;37.326;2023-04-22T18:23:07;21.6;;;12.5;;
51515;SDS011;37603;55.614;37.326;2023-04-22T18:29:07;12.9;;;6.5;;
51515;SDS011;37603;55.614;37.326;2023-04-22T18:35:06;14.6;;;8.8;;
51515;SDS011;37603;55.614;37.326;2023-04-22T18:41:05;18.2;;;9.1;;
51515;SDS011;37603;55.614;37.326;2023-04-22T18:47:04;17.6;;;10.1;;
51515;SDS011;37603;55.614;37.326;2023-04-22T18:53:03;21.8;;;11.4;;
51515;SDS011;37603;55.614;37.326;2023-04-22T18:59:02;25.8;;;14.4;;
51515;SDS011;37603;55.614;37.326;2023-04-22T19:05:02;83.3;;;45.5;;
51515;SDS011;37603;55.614;37.326;2023-04-22T19:11:01;120.6;;;70.8;;
51515;SDS011;37603;55.614;37.326;2023-04-22T19:17:00;132.2;;;79.6;;
51515;SDS011;37603;55.614;37.326;2023-04-22T19:22:59;144.9;;;85.4;;
51515;SDS011;37603;55.614;37.326;2023-04-22T19:28:58;119.2;;;65.9;;
51515;SDS011;37603;55.614;37.326;2023-04-22T19:34:58;103.5;;;57.1;;
51515;SDS011;37603;55.614;37.326;2023-04-22T19:40:58;83.7;;;47.8;;
51515;SDS011;37603;55.614;37.326;2023-04-22T19:46:57;81.0;;;48.3;;
51515;SDS011;37603;55.614;37.326;2023-04-22T19:53:00;64.5;;;38.0;;
51515;SDS011;37603;55.614;37.326;2023-04-22T19:58:55;62.7;;;36.3;;
51515;SDS011;37603;55.614;37.326;2023-04-22T20:04:53;192.0;;;119.5;;
51515;SDS011;37603;55.614;37.326;2023-04-22T20:10:52;184.9;;;112.8;;
51515;SDS011;37603;55.614;37.326;2023-04-22T20:16:51;145.5;;;87.8;;
51515;SDS011;37603;55.614;37.326;2023-04-22T20:22:50;97.9;;;54.0;;
51515;SDS011;37603;55.614;37.326;2023-04-22T20:28:49;81.5;;;41.0;;
51515;SDS011;37603;55.614;37.326;2023-04-22T20:34:49;83.9;;;40.0;;
51515;SDS011;37603;55.614;37.326;2023-04-22T20:40:47;67.8;;;34.8;;
51515;SDS011;37603;55.614;37.326;2023-04-22T20:46:47;57.2;;;32.7;;
51515;SDS011;37603;55.614;37.326;2023-04-22T20:52:46;51.8;;;32.0;;
51515;SDS011;37603;55.614;37.326;2023-04-22T20:58:45;52.7;;;29.2;;
51515;SDS011;37603;55.614;37.326;2023-04-22T21:04:44;49.5;;;29.1;;
51515;SDS011;37603;55.614;37.326;2023-04-22T21:10:43;57.3;;;30.9;;
51515;SDS011;37603;55.614;37.326;2023-04-22T21:16:42;54.0;;;29.9;;
51515;SDS011;37603;55.614;37.326;2023-04-22T21:28:40;55.9;;;31.0;;
51515;SDS011;37603;55.614;37.326;2023-04-22T21:34:39;49.9;;;29.4;;
51515;SDS011;37603;55.614;37.326;2023-04-22T21:40:38;57.7;;;30.1;;
51515;SDS011;37603;55.614;37.326;2023-04-22T21:46:37;49.4;;;30.1;;
51515;SDS011;37603;55.614;37.326;2023-04-22T21:52:37;60.9;;;32.3;;
51515;SDS011;37603;55.614;37.326;2023-04-22T21:58:35;55.5;;;32.1;;
51515;SDS011;37603;55.614;37.326;2023-04-22T22:04:34;57.9;;;30.7;;
51515;SDS011;37603;55.614;37.326;2023-04-22T22:10:33;55.3;;;30.6;;
51515;SDS011;37603;55.614;37.326;2023-04-22T22:16:32;56.7;;;30.8;;
51515;SDS011;37603;55.614;37.326;2023-04-22T22:22:31;59.3;;;30.1;;
51515;SDS011;37603;55.614;37.326;2023-04-22T22:28:30;55.9;;;29.3;;
51515;SDS011;37603;55.614;37.326;2023-04-22T22:34:29;53.8;;;30.9;;
51515;SDS011;37603;55.614;37.326;2023-04-22T22:40:28;54.4;;;30.7;;
51515;SDS011;37603;55.614;37.326;2023-04-22T22:46:27;55.4;;;31.0;;
51515;SDS011;37603;55.614;37.326;2023-04-22T22:52:26;61.8;;;30.2;;
51515;SDS011;37603;55.614;37.326;2023-04-22T22:58:25;48.6;;;30.0;;
51515;SDS011;37603;55.614;37.326;2023-04-22T23:04:24;57.7;;;30.9;;
51515;SDS011;37603;55.614;37.326;2023-04-22T23:10:23;58.6;;;31.6;;
51515;SDS011;37603;55.614;37.326;2023-04-22T23:16:21;58.7;;;32.2;;
51515;SDS011;37603;55.614;37.326;2023-04-22T23:22:20;56.4;;;32.5;;
51515;SDS011;37603;55.614;37.326;2023-04-22T23:28:19;51.6;;;30.7;;
51515;SDS011;37603;55.614;37.326;2023-04-22T23:34:18;50.2;;;30.7;;
51515;SDS011;37603;55.614;37.326;2023-04-22T23:40:17;51.2;;;30.5;;
51515;SDS011;37603;55.614;37.326;2023-04-22T23:46:16;48.7;;;30.8;;
51515;SDS011;37603;55.614;37.326;2023-04-22T23:52:15;49.6;;;30.1;;
51515;SDS011;37603;55.614;37.326;2023-04-22T23:58:14;49.2;;;29.8;;
